createdAt,value
2024-03-16T00:02:21.186Z,2.60
2024-03-16T00:07:15.286Z,1.90
2024-03-16T00:09:42.194Z,1.70
2024-03-16T00:12:08.856Z,1.63
2024-03-16T00:14:35.512Z,2.40
2024-03-16T00:17:02.516Z,2.15
2024-03-16T00:19:29.244Z,3.08
2024-03-16T00:21:56.145Z,2.08
2024-03-16T00:24:22.973Z,1.90
2024-03-16T00:29:16.460Z,1.60
2024-03-16T00:31:44.984Z,3.05
2024-03-16T00:34:12.153Z,1.52
2024-03-16T00:36:39.678Z,1.50
2024-03-16T00:39:16.662Z,1.60
2024-03-16T00:41:46.524Z,1.60
2024-03-16T00:44:13.314Z,1.83
2024-03-16T00:46:39.917Z,1.65
2024-03-16T00:49:06.715Z,1.25
2024-03-16T00:51:34.456Z,2.17
2024-03-16T00:54:01.347Z,1.27
2024-03-16T00:56:28.244Z,1.20
2024-03-16T00:58:55.049Z,1.25
2024-03-16T01:03:49.620Z,1.50
2024-03-16T01:06:16.381Z,1.33
2024-03-16T01:08:43.105Z,1.13
2024-03-16T01:11:10.568Z,1.05
2024-03-16T01:13:37.670Z,1.27
2024-03-16T01:16:04.856Z,0.75
2024-03-16T01:18:31.660Z,1.00
2024-03-16T01:23:26.130Z,0.90
2024-03-16T01:25:53.381Z,0.80
2024-03-16T01:28:20.754Z,0.60
2024-03-16T01:30:47.647Z,0.60
2024-03-16T01:33:14.538Z,0.88
2024-03-16T01:38:07.808Z,0.60
2024-03-16T01:40:34.583Z,0.63
2024-03-16T01:43:01.313Z,0.30
2024-03-16T01:47:56.681Z,0.30
2024-03-16T01:50:23.676Z,0.52
2024-03-16T01:55:18.225Z,0.30
2024-03-16T01:57:45.838Z,0.50
2024-03-16T02:00:13.441Z,0.57
2024-03-16T02:02:40.952Z,0.28
2024-03-16T02:05:08.958Z,0.50
2024-03-16T02:07:40.485Z,0.40
2024-03-16T02:10:11.254Z,0.35
2024-03-16T02:12:38.265Z,0.57
2024-03-16T02:15:05.603Z,0.60
2024-03-16T02:17:35.787Z,0.55
2024-03-16T02:20:11.292Z,0.40
2024-03-16T02:22:39.731Z,0.30
2024-03-16T02:25:11.481Z,0.63
2024-03-16T02:27:42.332Z,0.73
2024-03-16T02:30:16.105Z,1.27
2024-03-16T02:32:43.576Z,0.75
2024-03-16T02:35:10.631Z,0.60
2024-03-16T02:37:37.525Z,0.80
2024-03-16T02:40:05.430Z,1.42
2024-03-16T02:42:32.389Z,0.70
2024-03-16T02:44:59.155Z,1.13
2024-03-16T02:49:53.697Z,1.10
2024-03-16T02:52:20.354Z,1.20
2024-03-16T02:54:47.110Z,1.33
2024-03-16T02:59:41.420Z,1.30
2024-03-16T03:02:08.075Z,1.13
2024-03-16T03:04:35.553Z,1.30
2024-03-16T03:07:02.795Z,1.50
2024-03-16T03:09:29.581Z,1.30
2024-03-16T03:11:56.702Z,1.60
2024-03-16T03:14:23.400Z,2.03
2024-03-16T03:16:50.006Z,1.67
2024-03-16T03:19:17.316Z,1.30
2024-03-16T03:21:44.065Z,1.60
2024-03-16T03:24:10.757Z,1.33
2024-03-16T03:26:37.458Z,1.50
2024-03-16T03:29:04.141Z,1.50
2024-03-16T03:31:30.884Z,1.65
2024-03-16T03:36:24.321Z,1.90
2024-03-16T03:38:51.015Z,1.45
2024-03-16T03:41:19.702Z,1.30
2024-03-16T03:43:48.706Z,1.77
2024-03-16T03:46:40.513Z,1.33
2024-03-16T03:49:13.567Z,1.50
2024-03-16T03:51:40.405Z,2.13
2024-03-16T03:54:09.887Z,1.27
2024-03-16T03:56:36.643Z,1.45
2024-03-16T04:01:30.278Z,1.15
2024-03-16T04:06:25.924Z,1.20
2024-03-16T04:08:52.638Z,1.20
2024-03-16T04:11:19.393Z,1.10
2024-03-16T04:13:46.121Z,1.42
2024-03-16T04:16:15.712Z,1.10
2024-03-16T04:18:43.034Z,1.00
2024-03-16T04:21:09.832Z,0.88
2024-03-16T04:26:03.149Z,1.02
2024-03-16T04:30:56.512Z,1.02
2024-03-16T04:35:49.809Z,1.20
2024-03-16T04:38:16.445Z,1.02
2024-03-16T04:40:43.946Z,1.20
2024-03-16T04:43:10.777Z,1.30
2024-03-16T04:48:06.100Z,1.20
2024-03-16T04:50:32.876Z,1.10
2024-03-16T04:52:59.557Z,1.33
2024-03-16T04:57:52.810Z,1.38
2024-03-16T05:00:19.539Z,1.35
2024-03-16T05:05:14.574Z,1.55
2024-03-16T05:10:09.940Z,1.10
2024-03-16T05:12:37.086Z,1.42
2024-03-16T05:17:32.677Z,1.50
2024-03-16T05:19:59.737Z,1.40
2024-03-16T05:22:26.815Z,1.42
2024-03-16T05:24:53.653Z,1.05
2024-03-16T05:29:46.999Z,1.30
2024-03-16T05:32:14.175Z,1.38
2024-03-16T05:34:41.280Z,1.45
2024-03-16T05:37:08.053Z,1.00
2024-03-16T05:42:01.704Z,0.98
2024-03-16T05:44:28.482Z,1.38
2024-03-16T05:49:23.858Z,1.02
2024-03-16T05:51:51.459Z,2.00
2024-03-16T05:54:18.101Z,1.80
2024-03-16T05:56:44.734Z,1.48
2024-03-16T05:59:12.059Z,1.42
2024-03-16T06:01:39.015Z,1.35
2024-03-16T06:04:05.889Z,1.83
2024-03-16T06:09:00.288Z,0.98
2024-03-16T06:11:27.794Z,1.35
2024-03-16T06:13:54.698Z,0.85
2024-03-16T06:16:23.010Z,0.88
2024-03-16T06:18:49.886Z,0.70
2024-03-16T06:21:16.566Z,1.40
2024-03-16T06:23:43.792Z,1.02
2024-03-16T06:26:17.965Z,1.13
2024-03-16T06:28:48.384Z,0.90
2024-03-16T06:31:15.175Z,0.98
2024-03-16T06:36:13.235Z,0.88
2024-03-16T06:38:39.975Z,0.55
2024-03-16T06:43:33.769Z,0.63
2024-03-16T06:46:02.008Z,0.55
2024-03-16T06:48:29.049Z,0.50
2024-03-16T06:53:23.128Z,0.50
2024-03-16T06:55:52.326Z,0.50
2024-03-16T06:58:19.089Z,0.40
2024-03-16T07:03:13.268Z,0.80
2024-03-16T07:05:39.914Z,0.82
2024-03-16T07:08:10.671Z,0.93
2024-03-16T07:10:38.206Z,1.30
2024-03-16T07:13:05.231Z,0.60
2024-03-16T07:15:35.737Z,0.75
2024-03-16T07:18:02.587Z,0.52
2024-03-16T07:22:55.980Z,0.32
2024-03-16T07:25:22.856Z,0.30
2024-03-16T07:27:49.626Z,0.30
2024-03-16T07:30:19.371Z,0.60
2024-03-16T07:32:47.346Z,0.60
2024-03-16T07:35:14.477Z,0.40
2024-03-16T07:37:41.225Z,0.40
2024-03-16T07:42:43.012Z,0.20
2024-03-16T07:45:10.472Z,0.32
2024-03-16T07:47:37.630Z,0.20
2024-03-16T07:50:06.669Z,0.28
2024-03-16T07:52:34.594Z,0.30
2024-03-16T07:55:01.803Z,0.30
2024-03-16T07:57:31.463Z,0.60
2024-03-16T07:59:58.139Z,0.32
2024-03-16T08:02:25.864Z,0.60
2024-03-16T08:04:52.494Z,0.50
2024-03-16T08:07:19.215Z,0.63
2024-03-16T08:12:12.981Z,0.80
2024-03-16T08:14:39.632Z,0.40
2024-03-16T08:17:06.678Z,0.50
2024-03-16T08:19:33.793Z,0.77
2024-03-16T08:22:00.601Z,0.63
2024-03-16T08:24:27.684Z,0.70
2024-03-16T08:26:54.409Z,0.40
2024-03-16T08:31:47.873Z,0.32
2024-03-16T08:34:14.596Z,0.50
2024-03-16T08:39:09.356Z,1.10
2024-03-16T08:41:37.596Z,1.10
2024-03-16T08:44:05.756Z,1.10
2024-03-16T08:46:33.199Z,0.70
2024-03-16T08:49:00.351Z,0.77
2024-03-16T08:51:27.313Z,0.47
2024-03-16T08:53:54.563Z,0.90
2024-03-16T08:56:21.477Z,0.60
2024-03-16T08:58:48.445Z,0.55
2024-03-16T09:01:15.322Z,0.40
2024-03-16T09:03:42.228Z,0.25
2024-03-16T09:06:09.044Z,0.40
2024-03-16T09:08:38.196Z,0.75
2024-03-16T09:11:05.419Z,0.20
2024-03-16T09:13:34.809Z,0.20
2024-03-16T09:16:06.477Z,0.40
2024-03-16T09:18:36.607Z,0.32
2024-03-16T09:21:04.325Z,0.30
2024-03-16T09:23:31.258Z,0.88
2024-03-16T09:25:58.500Z,1.70
2024-03-16T09:28:25.226Z,1.38
2024-03-16T09:30:56.334Z,1.33
2024-03-16T09:33:24.504Z,1.63
2024-03-16T09:35:54.533Z,1.58
2024-03-16T09:38:21.478Z,1.67
